sensor_id;sensor_type;location;lat;lon;timestamp;P1;durP1;ratioP1;P2;durP2;ratioP2
15126;SDS011;7664;52.008;4.748;2023-07-31T00:02:20;9.88;;;4.53;;
15126;SDS011;7664;52.008;4.748;2023-07-31T00:04:48;13.13;;;5.22;;
15126;SDS011;7664;52.008;4.748;2023-07-31T00:07:17;11.52;;;4.40;;
15126;SDS011;7664;52.008;4.748;2023-07-31T00:09:45;16.92;;;5.35;;
15126;SDS011;7664;52.008;4.748;2023-07-31T00:12:15;14.20;;;4.82;;
15126;SDS011;7664;52.008;4.748;2023-07-31T00:14:43;10.63;;;5.05;;
15126;SDS011;7664;52.008;4.748;2023-07-31T00:17:11;13.07;;;4.57;;
15126;SDS011;7664;52.008;4.748;2023-07-31T00:19:40;15.77;;;4.60;;
15126;SDS011;7664;52.008;4.748;2023-07-31T00:22:08;13.40;;;5.05;;
15126;SDS011;7664;52.008;4.748;2023-07-31T00:24:36;12.95;;;4.47;;
15126;SDS011;7664;52.008;4.748;2023-07-31T00:27:05;15.45;;;4.38;;
15126;SDS011;7664;52.008;4.748;2023-07-31T00:29:35;17.38;;;5.50;;
15126;SDS011;7664;52.008;4.748;2023-07-31T00:32:03;14.45;;;5.10;;
15126;SDS011;7664;52.008;4.748;2023-07-31T00:34:32;13.25;;;4.88;;
15126;SDS011;7664;52.008;4.748;2023-07-31T00:37:01;13.93;;;5.53;;
15126;SDS011;7664;52.008;4.748;2023-07-31T00:39:30;15.02;;;4.35;;
15126;SDS011;7664;52.008;4.748;2023-07-31T00:41:59;15.40;;;5.03;;
15126;SDS011;7664;52.008;4.748;2023-07-31T00:44:27;16.85;;;5.15;;
15126;SDS011;7664;52.008;4.748;2023-07-31T00:46:57;15.60;;;5.15;;
15126;SDS011;7664;52.008;4.748;2023-07-31T00:49:25;11.38;;;4.90;;
15126;SDS011;7664;52.008;4.748;2023-07-31T00:51:54;11.82;;;4.20;;
15126;SDS011;7664;52.008;4.748;2023-07-31T00:54:24;14.20;;;4.82;;
15126;SDS011;7664;52.008;4.748;2023-07-31T00:56:52;17.95;;;5.28;;
15126;SDS011;7664;52.008;4.748;2023-07-31T00:59:21;18.30;;;5.65;;
15126;SDS011;7664;52.008;4.748;2023-07-31T01:01:49;12.55;;;4.60;;
15126;SDS011;7664;52.008;4.748;2023-07-31T01:04:19;14.27;;;4.85;;
15126;SDS011;7664;52.008;4.748;2023-07-31T01:06:48;13.85;;;5.10;;
15126;SDS011;7664;52.008;4.748;2023-07-31T01:09:20;16.55;;;5.97;;
15126;SDS011;7664;52.008;4.748;2023-07-31T01:11:51;11.95;;;5.05;;
15126;SDS011;7664;52.008;4.748;2023-07-31T01:14:20;15.23;;;5.15;;
15126;SDS011;7664;52.008;4.748;2023-07-31T01:16:49;18.02;;;4.72;;
15126;SDS011;7664;52.008;4.748;2023-07-31T01:19:18;11.38;;;4.47;;
15126;SDS011;7664;52.008;4.748;2023-07-31T01:21:58;9.38;;;3.30;;
15126;SDS011;7664;52.008;4.748;2023-07-31T01:24:34;7.35;;;3.40;;
15126;SDS011;7664;52.008;4.748;2023-07-31T01:27:06;6.07;;;2.63;;
15126;SDS011;7664;52.008;4.748;2023-07-31T01:29:36;5.38;;;2.42;;
15126;SDS011;7664;52.008;4.748;2023-07-31T01:32:06;7.53;;;3.17;;
15126;SDS011;7664;52.008;4.748;2023-07-31T01:34:36;7.68;;;3.17;;
15126;SDS011;7664;52.008;4.748;2023-07-31T01:37:05;8.75;;;3.22;;
15126;SDS011;7664;52.008;4.748;2023-07-31T01:39:33;10.27;;;3.42;;
15126;SDS011;7664;52.008;4.748;2023-07-31T01:42:02;11.23;;;3.80;;
15126;SDS011;7664;52.008;4.748;2023-07-31T01:44:32;12.48;;;3.97;;
15126;SDS011;7664;52.008;4.748;2023-07-31T01:47:03;15.48;;;4.70;;
15126;SDS011;7664;52.008;4.748;2023-07-31T01:49:32;12.75;;;4.65;;
15126;SDS011;7664;52.008;4.748;2023-07-31T01:52:00;11.70;;;4.03;;
15126;SDS011;7664;52.008;4.748;2023-07-31T01:54:28;12.23;;;4.90;;
15126;SDS011;7664;52.008;4.748;2023-07-31T01:56:57;12.77;;;4.53;;
15126;SDS011;7664;52.008;4.748;2023-07-31T01:59:26;12.45;;;4.57;;
15126;SDS011;7664;52.008;4.748;2023-07-31T02:01:56;17.63;;;4.75;;
15126;SDS011;7664;52.008;4.748;2023-07-31T02:04:25;16.75;;;5.20;;
15126;SDS011;7664;52.008;4.748;2023-07-31T02:06:53;15.63;;;4.45;;
15126;SDS011;7664;52.008;4.748;2023-07-31T02:09:21;11.98;;;4.72;;
15126;SDS011;7664;52.008;4.748;2023-07-31T02:11:50;13.88;;;4.75;;
15126;SDS011;7664;52.008;4.748;2023-07-31T02:14:18;15.10;;;4.88;;
15126;SDS011;7664;52.008;4.748;2023-07-31T02:16:47;13.73;;;5.03;;
15126;SDS011;7664;52.008;4.748;2023-07-31T02:19:16;16.48;;;5.60;;
15126;SDS011;7664;52.008;4.748;2023-07-31T02:21:46;14.07;;;5.70;;
15126;SDS011;7664;52.008;4.748;2023-07-31T02:24:14;12.23;;;5.05;;
15126;SDS011;7664;52.008;4.748;2023-07-31T02:26:43;16.45;;;5.05;;
15126;SDS011;7664;52.008;4.748;2023-07-31T02:29:12;18.42;;;5.35;;
15126;SDS011;7664;52.008;4.748;2023-07-31T02:31:40;15.55;;;5.60;;
15126;SDS011;7664;52.008;4.748;2023-07-31T02:34:09;12.20;;;4.40;;
15126;SDS011;7664;52.008;4.748;2023-07-31T02:36:38;19.50;;;5.65;;
15126;SDS011;7664;52.008;4.748;2023-07-31T02:39:07;15.32;;;5.25;;
15126;SDS011;7664;52.008;4.748;2023-07-31T02:41:36;16.67;;;4.85;;
15126;SDS011;7664;52.008;4.748;2023-07-31T02:44:04;15.25;;;5.38;;
15126;SDS011;7664;52.008;4.748;2023-07-31T02:46:33;14.40;;;5.07;;
15126;SDS011;7664;52.008;4.748;2023-07-31T02:49:01;12.85;;;5.18;;
15126;SDS011;7664;52.008;4.748;2023-07-31T02:51:30;13.18;;;5.25;;
15126;SDS011;7664;52.008;4.748;2023-07-31T02:54:00;12.43;;;5.18;;
15126;SDS011;7664;52.008;4.748;2023-07-31T02:56:28;13.52;;;4.55;;
15126;SDS011;7664;52.008;4.748;2023-07-31T02:58:57;14.23;;;5.20;;
15126;SDS011;7664;52.008;4.748;2023-07-31T03:01:26;13.10;;;4.07;;
15126;SDS011;7664;52.008;4.748;2023-07-31T03:03:55;11.85;;;5.18;;
15126;SDS011;7664;52.008;4.748;2023-07-31T03:06:23;9.65;;;4.22;;
15126;SDS011;7664;52.008;4.748;2023-07-31T03:08:53;13.65;;;4.53;;
15126;SDS011;7664;52.008;4.748;2023-07-31T03:11:23;10.02;;;4.32;;
15126;SDS011;7664;52.008;4.748;2023-07-31T03:13:51;16.85;;;4.25;;
15126;SDS011;7664;52.008;4.748;2023-07-31T03:16:20;16.42;;;4.57;;
15126;SDS011;7664;52.008;4.748;2023-07-31T03:18:49;15.70;;;4.70;;
15126;SDS011;7664;52.008;4.748;2023-07-31T03:21:17;12.15;;;4.78;;
15126;SDS011;7664;52.008;4.748;2023-07-31T03:23:45;12.68;;;4.68;;
15126;SDS011;7664;52.008;4.748;2023-07-31T03:26:14;12.68;;;4.60;;
15126;SDS011;7664;52.008;4.748;2023-07-31T03:28:43;12.18;;;4.47;;
15126;SDS011;7664;52.008;4.748;2023-07-31T03:31:12;12.60;;;4.43;;
15126;SDS011;7664;52.008;4.748;2023-07-31T03:33:40;10.70;;;3.88;;
15126;SDS011;7664;52.008;4.748;2023-07-31T03:36:08;11.07;;;4.38;;
15126;SDS011;7664;52.008;4.748;2023-07-31T03:38:37;16.55;;;5.07;;
15126;SDS011;7664;52.008;4.748;2023-07-31T03:41:06;15.60;;;4.75;;
15126;SDS011;7664;52.008;4.748;2023-07-31T03:43:35;10.38;;;4.45;;
15126;SDS011;7664;52.008;4.748;2023-07-31T03:46:08;14.32;;;4.95;;
15126;SDS011;7664;52.008;4.748;2023-07-31T03:48:36;10.02;;;4.60;;
15126;SDS011;7664;52.008;4.748;2023-07-31T03:51:05;14.38;;;5.13;;
15126;SDS011;7664;52.008;4.748;2023-07-31T03:53:33;12.93;;;5.10;;
15126;SDS011;7664;52.008;4.748;2023-07-31T03:56:01;13.00;;;5.13;;
15126;SDS011;7664;52.008;4.748;2023-07-31T03:58:30;10.82;;;4.70;;
15126;SDS011;7664;52.008;4.748;2023-07-31T04:00:58;8.85;;;3.95;;
15126;SDS011;7664;52.008;4.748;2023-07-31T04:03:28;12.65;;;5.05;;
15126;SDS011;7664;52.008;4.748;2023-07-31T04:05:56;12.65;;;5.10;;
15126;SDS011;7664;52.008;4.748;2023-07-31T04:08:25;10.82;;;4.28;;
15126;SDS011;7664;52.008;4.748;2023-07-31T04:10:53;10.90;;;3.97;;
15126;SDS011;7664;52.008;4.748;2023-07-31T04:13:22;10.30;;;4.13;;
15126;SDS011;7664;52.008;4.748;2023-07-31T04:15:50;10.35;;;3.38;;
15126;SDS011;7664;52.008;4.748;2023-07-31T04:18:18;9.63;;;4.22;;
15126;SDS011;7664;52.008;4.748;2023-07-31T04:20:48;11.88;;;4.28;;
15126;SDS011;7664;52.008;4.748;2023-07-31T04:23:17;11.18;;;4.10;;
15126;SDS011;7664;52.008;4.748;2023-07-31T04:25:45;8.30;;;3.72;;
15126;SDS011;7664;52.008;4.748;2023-07-31T04:28:13;10.00;;;3.88;;
15126;SDS011;7664;52.008;4.748;2023-07-31T04:30:42;7.88;;;3.95;;
15126;SDS011;7664;52.008;4.748;2023-07-31T04:33:10;12.18;;;3.63;;
15126;SDS011;7664;52.008;4.748;2023-07-31T04:35:38;8.38;;;3.33;;
15126;SDS011;7664;52.008;4.748;2023-07-31T04:38:08;6.97;;;3.78;;
15126;SDS011;7664;52.008;4.748;2023-07-31T04:40:37;6.32;;;2.97;;
15126;SDS011;7664;52.008;4.748;2023-07-31T04:43:05;6.70;;;3.70;;
15126;SDS011;7664;52.008;4.748;2023-07-31T04:45:33;8.45;;;3.33;;
15126;SDS011;7664;52.008;4.748;2023-07-31T04:48:02;5.85;;;3.40;;
15126;SDS011;7664;52.008;4.748;2023-07-31T04:50:30;9.02;;;3.30;;
15126;SDS011;7664;52.008;4.748;2023-07-31T04:52:59;4.88;;;2.88;;
15126;SDS011;7664;52.008;4.748;2023-07-31T04:55:29;4.72;;;2.50;;
15126;SDS011;7664;52.008;4.748;2023-07-31T04:57:58;8.70;;;3.13;;
15126;SDS011;7664;52.008;4.748;2023-07-31T05:00:26;6.18;;;2.65;;
15126;SDS011;7664;52.008;4.748;2023-07-31T05:02:55;6.68;;;3.33;;
15126;SDS011;7664;52.008;4.748;2023-07-31T05:05:23;6.10;;;3.05;;
15126;SDS011;7664;52.008;4.748;2023-07-31T05:07:52;8.50;;;3.22;;
15126;SDS011;7664;52.008;4.748;2023-07-31T05:10:20;5.78;;;2.95;;
15126;SDS011;7664;52.008;4.748;2023-07-31T05:12:50;5.15;;;2.67;;
15126;SDS011;7664;52.008;4.748;2023-07-31T05:15:18;4.50;;;2.58;;
15126;SDS011;7664;52.008;4.748;2023-07-31T05:17:46;6.20;;;3.15;;
15126;SDS011;7664;52.008;4.748;2023-07-31T05:20:15;5.35;;;2.95;;
15126;SDS011;7664;52.008;4.748;2023-07-31T05:22:43;7.80;;;3.22;;
15126;SDS011;7664;52.008;4.748;2023-07-31T05:25:12;4.93;;;2.17;;
15126;SDS011;7664;52.008;4.748;2023-07-31T05:27:40;5.75;;;3.30;;
15126;SDS011;7664;52.008;4.748;2023-07-31T05:30:10;4.57;;;2.63;;
15126;SDS011;7664;52.008;4.748;2023-07-31T05:32:38;5.20;;;2.22;;
15126;SDS011;7664;52.008;4.748;2023-07-31T05:35:06;6.85;;;2.67;;
15126;SDS011;7664;52.008;4.748;2023-07-31T05:37:35;4.35;;;2.22;;
15126;SDS011;7664;52.008;4.748;2023-07-31T05:40:04;4.50;;;2.20;;
15126;SDS011;7664;52.008;4.748;2023-07-31T05:42:33;7.22;;;2.20;;
15126;SDS011;7664;52.008;4.748;2023-07-31T05:45:05;2.65;;;1.70;;
15126;SDS011;7664;52.008;4.748;2023-07-31T05:47:35;3.42;;;2.15;;
15126;SDS011;7664;52.008;4.748;2023-07-31T05:50:03;3.13;;;1.48;;
15126;SDS011;7664;52.008;4.748;2023-07-31T05:52:32;3.30;;;2.05;;
15126;SDS011;7664;52.008;4.748;2023-07-31T05:55:00;3.50;;;1.42;;
15126;SDS011;7664;52.008;4.748;2023-07-31T05:57:29;4.25;;;1.75;;
15126;SDS011;7664;52.008;4.748;2023-07-31T05:59:57;3.80;;;1.65;;
15126;SDS011;7664;52.008;4.748;2023-07-31T06:02:26;3.33;;;1.48;;
15126;SDS011;7664;52.008;4.748;2023-07-31T06:04:55;3.30;;;1.83;;
15126;SDS011;7664;52.008;4.748;2023-07-31T06:07:24;4.97;;;1.52;;
15126;SDS011;7664;52.008;4.748;2023-07-31T06:09:52;3.22;;;1.60;;
15126;SDS011;7664;52.008;4.748;2023-07-31T06:12:21;3.00;;;1.73;;
15126;SDS011;7664;52.008;4.748;2023-07-31T06:14:51;5.05;;;1.77;;
15126;SDS011;7664;52.008;4.748;2023-07-31T06:17:19;3.55;;;1.95;;
15126;SDS011;7664;52.008;4.748;2023-07-31T06:19:47;3.90;;;1.70;;
15126;SDS011;7664;52.008;4.748;2023-07-31T06:22:17;3.40;;;1.92;;
15126;SDS011;7664;52.008;4.748;2023-07-31T06:24:46;2.80;;;1.50;;
15126;SDS011;7664;52.008;4.748;2023-07-31T06:27:14;3.00;;;1.60;;
15126;SDS011;7664;52.008;4.748;2023-07-31T06:29:42;4.40;;;2.00;;
15126;SDS011;7664;52.008;4.748;2023-07-31T06:32:11;4.65;;;1.85;;
15126;SDS011;7664;52.008;4.748;2023-07-31T06:34:39;3.78;;;1.90;;
15126;SDS011;7664;52.008;4.748;2023-07-31T06:37:07;4.50;;;1.98;;
15126;SDS011;7664;52.008;4.748;2023-07-31T06:39:37;3.90;;;1.83;;
15126;SDS011;7664;52.008;4.748;2023-07-31T06:42:06;2.33;;;1.70;;
15126;SDS011;7664;52.008;4.748;2023-07-31T06:44:34;2.30;;;1.63;;
15126;SDS011;7664;52.008;4.748;2023-07-31T06:47:03;2.72;;;1.98;;
15126;SDS011;7664;52.008;4.748;2023-07-31T06:49:31;3.60;;;1.70;;
15126;SDS011;7664;52.008;4.748;2023-07-31T06:52:00;4.07;;;1.45;;
15126;SDS011;7664;52.008;4.748;2023-07-31T06:54:28;1.88;;;1.15;;
15126;SDS011;7664;52.008;4.748;2023-07-31T06:56:58;2.63;;;1.45;;
15126;SDS011;7664;52.008;4.748;2023-07-31T06:59:26;1.77;;;1.30;;
15126;SDS011;7664;52.008;4.748;2023-07-31T07:01:55;3.55;;;1.75;;
15126;SDS011;7664;52.008;4.748;2023-07-31T07:04:23;2.85;;;1.30;;
15126;SDS011;7664;52.008;4.748;2023-07-31T07:06:53;1.83;;;1.08;;
15126;SDS011;7664;52.008;4.748;2023-07-31T07:09:21;1.90;;;1.10;;
15126;SDS011;7664;52.008;4.748;2023-07-31T07:11:49;2.90;;;1.50;;
15126;SDS011;7664;52.008;4.748;2023-07-31T07:14:19;4.25;;;1.02;;
15126;SDS011;7664;52.008;4.748;2023-07-31T07:16:50;1.58;;;1.13;;
15126;SDS011;7664;52.008;4.748;2023-07-31T07:19:18;2.63;;;1.17;;
15126;SDS011;7664;52.008;4.748;2023-07-31T07:21:47;3.15;;;1.70;;
15126;SDS011;7664;52.008;4.748;2023-07-31T07:24:15;2.83;;;1.33;;
15126;SDS011;7664;52.008;4.748;2023-07-31T07:26:44;3.25;;;1.25;;
15126;SDS011;7664;52.008;4.748;2023-07-31T07:29:12;1.10;;;0.90;;
15126;SDS011;7664;52.008;4.748;2023-07-31T07:31:42;1.52;;;0.70;;
15126;SDS011;7664;52.008;4.748;2023-07-31T07:34:10;2.08;;;0.90;;
15126;SDS011;7664;52.008;4.748;2023-07-31T07:36:38;1.77;;;0.82;;
15126;SDS011;7664;52.008;4.748;2023-07-31T07:39:08;1.75;;;0.80;;
15126;SDS011;7664;52.008;4.748;2023-07-31T07:41:36;1.23;;;0.85;;
15126;SDS011;7664;52.008;4.748;2023-07-31T07:44:05;2.08;;;1.02;;
15126;SDS011;7664;52.008;4.748;2023-07-31T07:46:34;1.15;;;0.60;;
15126;SDS011;7664;52.008;4.748;2023-07-31T07:49:04;1.15;;;0.60;;
15126;SDS011;7664;52.008;4.748;2023-07-31T07:51:33;0.80;;;0.80;;
15126;SDS011;7664;52.008;4.748;2023-07-31T07:54:01;1.63;;;0.70;;
15126;SDS011;7664;52.008;4.748;2023-07-31T07:56:30;1.67;;;0.60;;
15126;SDS011;7664;52.008;4.748;2023-07-31T07:58:59;0.57;;;0.50;;
15126;SDS011;7664;52.008;4.748;2023-07-31T08:01:27;2.38;;;0.63;;
15126;SDS011;7664;52.008;4.748;2023-07-31T08:03:56;2.35;;;0.63;;
15126;SDS011;7664;52.008;4.748;2023-07-31T08:06:25;1.98;;;0.90;;
15126;SDS011;7664;52.008;4.748;2023-07-31T08:08:55;2.03;;;0.70;;
15126;SDS011;7664;52.008;4.748;2023-07-31T08:11:24;0.93;;;0.65;;
15126;SDS011;7664;52.008;4.748;2023-07-31T08:13:52;3.92;;;0.50;;
15126;SDS011;7664;52.008;4.748;2023-07-31T08:16:20;0.38;;;0.35;;
15126;SDS011;7664;52.008;4.748;2023-07-31T08:18:49;0.65;;;0.52;;
15126;SDS011;7664;52.008;4.748;2023-07-31T08:21:21;0.68;;;0.60;;
15126;SDS011;7664;52.008;4.748;2023-07-31T08:23:50;1.05;;;0.40;;
15126;SDS011;7664;52.008;4.748;2023-07-31T08:26:19;0.85;;;0.57;;
15126;SDS011;7664;52.008;4.748;2023-07-31T08:28:48;0.60;;;0.45;;
15126;SDS011;7664;52.008;4.748;2023-07-31T08:31:16;0.80;;;0.40;;
15126;SDS011;7664;52.008;4.748;2023-07-31T08:33:45;0.57;;;0.40;;
15126;SDS011;7664;52.008;4.748;2023-07-31T08:36:13;0.43;;;0.40;;
15126;SDS011;7664;52.008;4.748;2023-07-31T08:38:42;0.52;;;0.40;;
15126;SDS011;7664;52.008;4.748;2023-07-31T08:41:11;0.63;;;0.30;;
15126;SDS011;7664;52.008;4.748;2023-07-31T08:43:40;1.98;;;0.40;;
15126;SDS011;7664;52.008;4.748;2023-07-31T08:46:09;0.52;;;0.43;;
15126;SDS011;7664;52.008;4.748;2023-07-31T08:48:37;0.30;;;0.30;;
15126;SDS011;7664;52.008;4.748;2023-07-31T08:51:07;0.20;;;0.20;;
15126;SDS011;7664;52.008;4.748;2023-07-31T08:53:35;1.38;;;0.35;;
15126;SDS011;7664;52.008;4.748;2023-07-31T08:56:03;1.00;;;0.40;;
15126;SDS011;7664;52.008;4.748;2023-07-31T08:58:35;0.82;;;0.30;;
15126;SDS011;7664;52.008;4.748;2023-07-31T09:01:05;0.30;;;0.25;;
15126;SDS011;7664;52.008;4.748;2023-07-31T09:03:36;0.30;;;0.20;;
15126;SDS011;7664;52.008;4.748;2023-07-31T09:06:21;0.28;;;0.22;;
15126;SDS011;7664;52.008;4.748;2023-07-31T09:08:51;0.77;;;0.40;;
15126;SDS011;7664;52.008;4.748;2023-07-31T09:11:19;1.27;;;0.52;;
15126;SDS011;7664;52.008;4.748;2023-07-31T09:13:52;0.50;;;0.38;;
15126;SDS011;7664;52.008;4.748;2023-07-31T09:16:26;0.40;;;0.20;;
15126;SDS011;7664;52.008;4.748;2023-07-31T09:18:56;0.55;;;0.20;;
15126;SDS011;7664;52.008;4.748;2023-07-31T09:21:28;0.30;;;0.30;;
15126;SDS011;7664;52.008;4.748;2023-07-31T09:23:56;1.52;;;0.35;;
15126;SDS011;7664;52.008;4.748;2023-07-31T09:26:28;0.50;;;0.47;;
15126;SDS011;7664;52.008;4.748;2023-07-31T09:28:58;0.43;;;0.40;;
15126;SDS011;7664;52.008;4.748;2023-07-31T09:31:33;0.88;;;0.63;;
15126;SDS011;7664;52.008;4.748;2023-07-31T09:34:02;0.43;;;0.43;;
15126;SDS011;7664;52.008;4.748;2023-07-31T09:36:30;1.15;;;0.45;;
15126;SDS011;7664;52.008;4.748;2023-07-31T09:39:01;0.85;;;0.52;;
15126;SDS011;7664;52.008;4.748;2023-07-31T09:41:30;0.75;;;0.63;;
15126;SDS011;7664;52.008;4.748;2023-07-31T09:44:00;1.02;;;0.80;;
15126;SDS011;7664;52.008;4.748;2023-07-31T09:46:28;1.45;;;0.47;;
15126;SDS011;7664;52.008;4.748;2023-07-31T09:49:05;1.38;;;0.73;;
15126;SDS011;7664;52.008;4.748;2023-07-31T09:51:35;2.17;;;1.02;;
15126;SDS011;7664;52.008;4.748;2023-07-31T09:54:09;2.05;;;1.17;;
15126;SDS011;7664;52.008;4.748;2023-07-31T09:56:42;0.98;;;0.82;;
15126;SDS011;7664;52.008;4.748;2023-07-31T09:59:13;0.63;;;0.63;;
15126;SDS011;7664;52.008;4.748;2023-07-31T10:01:42;1.20;;;1.10;;
15126;SDS011;7664;52.008;4.748;2023-07-31T10:04:10;1.38;;;0.93;;
15126;SDS011;7664;52.008;4.748;2023-07-31T10:06:40;1.20;;;0.95;;
15126;SDS011;7664;52.008;4.748;2023-07-31T10:09:09;2.50;;;1.00;;
15126;SDS011;7664;52.008;4.748;2023-07-31T10:11:38;0.82;;;0.75;;
15126;SDS011;7664;52.008;4.748;2023-07-31T10:14:10;0.80;;;0.63;;
15126;SDS011;7664;52.008;4.748;2023-07-31T10:16:40;2.67;;;1.00;;
15126;SDS011;7664;52.008;4.748;2023-07-31T10:19:09;0.98;;;0.82;;
15126;SDS011;7664;52.008;4.748;2023-07-31T10:21:38;1.58;;;0.95;;
15126;SDS011;7664;52.008;4.748;2023-07-31T10:24:08;1.10;;;0.60;;
15126;SDS011;7664;52.008;4.748;2023-07-31T10:26:37;1.45;;;0.90;;
15126;SDS011;7664;52.008;4.748;2023-07-31T10:29:07;1.70;;;0.85;;
15126;SDS011;7664;52.008;4.748;2023-07-31T10:31:35;0.85;;;0.80;;
15126;SDS011;7664;52.008;4.748;2023-07-31T10:34:05;1.80;;;0.90;;
15126;SDS011;7664;52.008;4.748;2023-07-31T10:36:34;1.98;;;1.13;;
15126;SDS011;7664;52.008;4.748;2023-07-31T10:39:03;2.60;;;1.20;;
15126;SDS011;7664;52.008;4.748;2023-07-31T10:41:33;1.70;;;0.85;;
15126;SDS011;7664;52.008;4.748;2023-07-31T10:44:04;2.42;;;1.27;;
15126;SDS011;7664;52.008;4.748;2023-07-31T10:46:35;1.92;;;1.25;;
15126;SDS011;7664;52.008;4.748;2023-07-31T10:49:06;2.58;;;1.70;;
15126;SDS011;7664;52.008;4.748;2023-07-31T10:51:35;3.75;;;1.85;;
15126;SDS011;7664;52.008;4.748;2023-07-31T10:54:10;3.42;;;1.67;;
15126;SDS011;7664;52.008;4.748;2023-07-31T10:56:39;5.70;;;1.48;;
15126;SDS011;7664;52.008;4.748;2023-07-31T10:59:08;4.00;;;2.03;;
15126;SDS011;7664;52.008;4.748;2023-07-31T11:01:51;4.60;;;1.40;;
15126;SDS011;7664;52.008;4.748;2023-07-31T11:04:23;4.85;;;1.77;;
15126;SDS011;7664;52.008;4.748;2023-07-31T11:06:55;4.65;;;0.90;;
15126;SDS011;7664;52.008;4.748;2023-07-31T11:09:24;3.50;;;1.45;;
15126;SDS011;7664;52.008;4.748;2023-07-31T11:11:53;3.15;;;1.52;;
15126;SDS011;7664;52.008;4.748;2023-07-31T11:14:21;2.20;;;1.10;;
15126;SDS011;7664;52.008;4.748;2023-07-31T11:16:50;3.83;;;1.30;;
15126;SDS011;7664;52.008;4.748;2023-07-31T11:19:23;2.95;;;1.50;;
15126;SDS011;7664;52.008;4.748;2023-07-31T11:21:51;2.30;;;1.30;;
15126;SDS011;7664;52.008;4.748;2023-07-31T11:24:20;2.03;;;1.60;;
15126;SDS011;7664;52.008;4.748;2023-07-31T11:26:49;3.15;;;2.05;;
15126;SDS011;7664;52.008;4.748;2023-07-31T11:29:18;2.58;;;1.88;;
15126;SDS011;7664;52.008;4.748;2023-07-31T11:31:46;3.35;;;2.30;;
15126;SDS011;7664;52.008;4.748;2023-07-31T11:34:15;4.68;;;2.10;;
15126;SDS011;7664;52.008;4.748;2023-07-31T11:36:53;4.47;;;2.25;;
15126;SDS011;7664;52.008;4.748;2023-07-31T11:39:22;4.85;;;2.75;;
15126;SDS011;7664;52.008;4.748;2023-07-31T11:41:50;4.05;;;2.15;;
15126;SDS011;7664;52.008;4.748;2023-07-31T11:44:19;3.35;;;2.50;;
15126;SDS011;7664;52.008;4.748;2023-07-31T11:46:56;3.20;;;2.10;;
15126;SDS011;7664;52.008;4.748;2023-07-31T11:49:24;3.22;;;2.33;;
15126;SDS011;7664;52.008;4.748;2023-07-31T11:51:54;3.20;;;2.38;;
15126;SDS011;7664;52.008;4.748;2023-07-31T11:54:23;3.67;;;2.60;;
15126;SDS011;7664;52.008;4.748;2023-07-31T11:56:52;3.65;;;2.60;;
15126;SDS011;7664;52.008;4.748;2023-07-31T11:59:20;4.05;;;2.22;;
15126;SDS011;7664;52.008;4.748;2023-07-31T12:01:48;5.45;;;2.70;;
15126;SDS011;7664;52.008;4.748;2023-07-31T12:04:20;4.70;;;2.47;;
15126;SDS011;7664;52.008;4.748;2023-07-31T12:06:48;3.42;;;2.45;;
15126;SDS011;7664;52.008;4.748;2023-07-31T12:09:19;3.72;;;2.60;;
15126;SDS011;7664;52.008;4.748;2023-07-31T12:11:48;2.55;;;1.92;;
15126;SDS011;7664;52.008;4.748;2023-07-31T12:14:20;4.18;;;2.20;;
15126;SDS011;7664;52.008;4.748;2023-07-31T12:16:52;2.80;;;1.90;;
15126;SDS011;7664;52.008;4.748;2023-07-31T12:19:23;4.03;;;2.28;;
15126;SDS011;7664;52.008;4.748;2023-07-31T12:21:54;2.03;;;1.85;;
15126;SDS011;7664;52.008;4.748;2023-07-31T12:24:24;4.22;;;1.80;;
15126;SDS011;7664;52.008;4.748;2023-07-31T12:26:53;2.55;;;1.70;;
15126;SDS011;7664;52.008;4.748;2023-07-31T12:29:33;2.90;;;1.40;;
15126;SDS011;7664;52.008;4.748;2023-07-31T12:32:18;2.55;;;1.67;;
15126;SDS011;7664;52.008;4.748;2023-07-31T12:34:47;2.53;;;1.70;;
15126;SDS011;7664;52.008;4.748;2023-07-31T12:37:15;3.95;;;1.95;;
15126;SDS011;7664;52.008;4.748;2023-07-31T12:39:45;2.67;;;1.80;;
15126;SDS011;7664;52.008;4.748;2023-07-31T12:42:17;4.32;;;1.40;;
15126;SDS011;7664;52.008;4.748;2023-07-31T12:44:45;2.45;;;1.67;;
15126;SDS011;7664;52.008;4.748;2023-07-31T12:47:13;2.05;;;1.50;;
15126;SDS011;7664;52.008;4.748;2023-07-31T12:49:42;2.75;;;1.42;;
15126;SDS011;7664;52.008;4.748;2023-07-31T12:52:11;1.48;;;1.38;;
15126;SDS011;7664;52.008;4.748;2023-07-31T12:54:39;4.05;;;1.75;;
15126;SDS011;7664;52.008;4.748;2023-07-31T12:57:09;1.67;;;1.40;;
15126;SDS011;7664;52.008;4.748;2023-07-31T12:59:37;1.65;;;1.40;;
15126;SDS011;7664;52.008;4.748;2023-07-31T13:02:07;2.50;;;2.10;;
15126;SDS011;7664;52.008;4.748;2023-07-31T13:04:35;3.50;;;1.70;;
15126;SDS011;7664;52.008;4.748;2023-07-31T13:07:04;3.95;;;1.73;;
15126;SDS011;7664;52.008;4.748;2023-07-31T13:09:33;2.78;;;1.52;;
15126;SDS011;7664;52.008;4.748;2023-07-31T13:12:01;3.55;;;1.20;;
15126;SDS011;7664;52.008;4.748;2023-07-31T13:14:31;1.33;;;1.13;;
15126;SDS011;7664;52.008;4.748;2023-07-31T13:17:00;0.80;;;0.50;;
15126;SDS011;7664;52.008;4.748;2023-07-31T13:19:28;2.15;;;0.80;;
15126;SDS011;7664;52.008;4.748;2023-07-31T13:21:56;0.60;;;0.60;;
15126;SDS011;7664;52.008;4.748;2023-07-31T13:24:25;1.30;;;0.60;;
15126;SDS011;7664;52.008;4.748;2023-07-31T13:26:53;0.93;;;0.73;;
15126;SDS011;7664;52.008;4.748;2023-07-31T13:29:21;3.50;;;0.70;;
15126;SDS011;7664;52.008;4.748;2023-07-31T13:31:52;0.85;;;0.70;;
15126;SDS011;7664;52.008;4.748;2023-07-31T13:34:21;0.77;;;0.70;;
15126;SDS011;7664;52.008;4.748;2023-07-31T13:36:49;0.63;;;0.60;;
15126;SDS011;7664;52.008;4.748;2023-07-31T13:39:17;0.90;;;0.70;;
15126;SDS011;7664;52.008;4.748;2023-07-31T13:41:46;0.60;;;0.60;;
15126;SDS011;7664;52.008;4.748;2023-07-31T13:44:14;0.47;;;0.47;;
15126;SDS011;7664;52.008;4.748;2023-07-31T13:46:42;0.95;;;0.80;;
15126;SDS011;7664;52.008;4.748;2023-07-31T13:49:12;0.55;;;0.40;;
15126;SDS011;7664;52.008;4.748;2023-07-31T13:51:41;0.73;;;0.47;;
15126;SDS011;7664;52.008;4.748;2023-07-31T13:54:09;1.70;;;0.50;;
15126;SDS011;7664;52.008;4.748;2023-07-31T13:56:39;0.40;;;0.40;;
15126;SDS011;7664;52.008;4.748;2023-07-31T13:59:08;0.80;;;0.60;;
15126;SDS011;7664;52.008;4.748;2023-07-31T14:01:36;0.50;;;0.43;;
15126;SDS011;7664;52.008;4.748;2023-07-31T14:04:05;0.50;;;0.50;;
15126;SDS011;7664;52.008;4.748;2023-07-31T14:06:35;0.90;;;0.80;;
15126;SDS011;7664;52.008;4.748;2023-07-31T14:09:04;0.82;;;0.70;;
15126;SDS011;7664;52.008;4.748;2023-07-31T14:11:33;1.50;;;0.60;;
15126;SDS011;7664;52.008;4.748;2023-07-31T14:14:03;1.20;;;0.60;;
15126;SDS011;7664;52.008;4.748;2023-07-31T14:16:31;0.45;;;0.40;;
15126;SDS011;7664;52.008;4.748;2023-07-31T14:19:00;0.65;;;0.47;;
15126;SDS011;7664;52.008;4.748;2023-07-31T14:21:29;0.82;;;0.70;;
15126;SDS011;7664;52.008;4.748;2023-07-31T14:23:59;0.40;;;0.40;;
15126;SDS011;7664;52.008;4.748;2023-07-31T14:26:27;1.02;;;0.60;;
15126;SDS011;7664;52.008;4.748;2023-07-31T14:28:56;0.57;;;0.57;;
15126;SDS011;7664;52.008;4.748;2023-07-31T14:31:24;0.60;;;0.50;;
15126;SDS011;7664;52.008;4.748;2023-07-31T14:33:52;1.83;;;0.82;;
15126;SDS011;7664;52.008;4.748;2023-07-31T14:36:23;1.00;;;0.52;;
15126;SDS011;7664;52.008;4.748;2023-07-31T14:38:52;0.63;;;0.63;;
15126;SDS011;7664;52.008;4.748;2023-07-31T14:41:21;2.40;;;0.93;;
15126;SDS011;7664;52.008;4.748;2023-07-31T14:43:50;0.75;;;0.63;;
15126;SDS011;7664;52.008;4.748;2023-07-31T14:46:18;0.73;;;0.73;;
15126;SDS011;7664;52.008;4.748;2023-07-31T14:48:47;0.70;;;0.50;;
15126;SDS011;7664;52.008;4.748;2023-07-31T14:51:15;0.95;;;0.55;;
15126;SDS011;7664;52.008;4.748;2023-07-31T14:53:44;1.10;;;0.95;;
15126;SDS011;7664;52.008;4.748;2023-07-31T14:56:13;0.63;;;0.60;;
15126;SDS011;7664;52.008;4.748;2023-07-31T14:58:43;1.55;;;1.10;;
15126;SDS011;7664;52.008;4.748;2023-07-31T15:01:11;1.00;;;0.90;;
15126;SDS011;7664;52.008;4.748;2023-07-31T15:03:40;0.80;;;0.70;;
15126;SDS011;7664;52.008;4.748;2023-07-31T15:06:08;3.05;;;1.00;;
15126;SDS011;7664;52.008;4.748;2023-07-31T15:08:39;0.88;;;0.70;;
15126;SDS011;7664;52.008;4.748;2023-07-31T15:11:09;1.55;;;1.30;;